Flight Track Log - Related Links

Times and Time Zones

All times are in EDT time to prevent confusion due to time zone crossing. See the JZA8293 flight status page for this flight to view local times or setup timezone preferences in your user account.

Time Position Orientation Groundspeed Altitude Reporting Facility
EDT Latitude Longitude Course Direction KTS MPH feet Rate Location/Type
Tue 01:28:13 PM 49.8833 -97.2333 285° West 10 12 800  Level Winnipeg Center
Tue 01:29:13 PM 49.9333 -97.2333 360° North 180 207 2,500 1,950 Climbing Winnipeg Center
Tue 01:30:13 PM 49.9833 -97.2000 23° Northeast 210 242 4,700 2,050 Climbing Winnipeg Center
Tue 01:31:13 PM 50.0333 -97.2500 327° Northwest 260 299 6,600 2,550 Climbing Winnipeg Center
Tue 01:32:00 PM 50.0549 -97.9241 287° West  Level FlightAware Approximate
Tue 01:32:13 PM 50.0333 -97.3500 270° West 250 288 9,800  Level Winnipeg Center
Tue 01:33:00 PM 50.0970 -98.0939 308° West  Level FlightAware Approximate
Tue 01:33:13 PM 50.0167 -97.4833 259° West 270 311 12,200  Level Winnipeg Center
Tue 01:34:00 PM 50.1344 -98.2677 285° West  Level FlightAware Approximate
Tue 01:34:13 PM 50.0167 -97.5833 270° West 300 345 14,100  Level Winnipeg Center
Tue 01:35:13 PM 50.0167 -97.7500 270° West 310 357 16,300 2,250 Climbing Winnipeg Center
Tue 01:36:13 PM 50.0500 -97.8833 291° West 330 380 18,600 2,000 Climbing Winnipeg Center
Tue 01:37:13 PM 50.0833 -98.0167 291° West 350 403 20,300 1,600 Climbing Winnipeg Center
Tue 01:38:13 PM 50.1000 -98.1667 280° West 350 403 21,800 1,500 Climbing Winnipeg Center
Tue 01:39:13 PM 50.1333 -98.3167 289° West 360 414 23,300 1,500 Climbing Winnipeg Center
Tue 01:40:13 PM 50.1667 -98.4833 287° West 370 426 24,800 1,300 Climbing Winnipeg Center
Tue 01:41:13 PM 50.2000 -98.6333 289° West 380 437 25,900 1,100 Climbing Winnipeg Center
Tue 01:42:13 PM 50.2333 -98.8000 287° West 390 449 27,000 1,050 Climbing Winnipeg Center
Tue 01:43:13 PM 50.2667 -98.9500 289° West 400 460 28,000 900 Climbing Winnipeg Center
Tue 01:44:13 PM 50.3000 -99.1167 287° West 400 460 28,800 1,050 Climbing Winnipeg Center
Tue 01:45:13 PM 50.3167 -99.3000 278° West 400 460 30,100 1,050 Climbing Winnipeg Center
Tue 01:46:13 PM 50.3500 -99.4500 289° West 400 460 30,900 850 Climbing Winnipeg Center
Tue 01:47:13 PM 50.3833 -99.6500 285° West 400 460 31,800 750 Climbing Winnipeg Center
Tue 01:48:13 PM 50.4167 -99.8000 289° West 400 460 32,400 650 Climbing Winnipeg Center
Tue 01:49:13 PM 50.4667 -99.9667 295° West 400 460 33,100 550 Climbing Winnipeg Center
Tue 01:50:13 PM 50.5000 -100.1167 289° West 400 460 33,500 400 Climbing Winnipeg Center
Tue 01:51:13 PM 50.5500 -100.2667 298° West 400 460 33,900 250 Climbing Winnipeg Center
Tue 01:52:13 PM 50.6000 -100.4500 293° West 400 460 34,000 50 Climbing Winnipeg Center
Tue 01:53:13 PM 50.6500 -100.6000 298° West 410 472 34,000  Level Winnipeg Center
Tue 01:54:13 PM 50.6833 -100.7667 288° West 420 483 34,000  Level Winnipeg Center
Tue 01:55:13 PM 50.7500 -100.9333 302° West 410 472 34,000  Level Winnipeg Center
Tue 01:56:13 PM 50.8000 -101.1000 295° West 410 472 34,000  Level Winnipeg Center
Tue 01:57:13 PM 50.8333 -101.2667 288° West 410 472 34,000  Level Winnipeg Center
Tue 01:58:13 PM 50.8833 -101.4167 298° West 410 472 34,000  Level Winnipeg Center
Tue 01:59:13 PM 50.9333 -101.5833 296° West 410 472 34,000  Level Winnipeg Center
Tue 02:00:13 PM 50.9667 -101.7500 288° West 410 472 34,000  Level Winnipeg Center
Tue 02:01:13 PM 51.0167 -101.9167 296° West 400 460 34,000  Level Winnipeg Center
Tue 02:02:13 PM 51.0500 -102.0833 288° West 410 472 34,000  Level Winnipeg Center
Tue 02:03:13 PM 51.1000 -102.2500 296° West 410 472 34,000  Level Winnipeg Center
Tue 02:04:13 PM 51.1333 -102.4167 288° West 410 472 34,000  Level Winnipeg Center
Tue 02:05:13 PM 51.2000 -102.6000 300° West 410 472 34,000  Level Winnipeg Center
Tue 02:06:13 PM 51.2500 -102.7500 298° West 410 472 34,000  Level Winnipeg Center
Tue 02:07:13 PM 51.2833 -102.9333 286° West 410 472 34,000  Level Winnipeg Center
Tue 02:08:13 PM 51.3167 -103.1000 288° West 420 483 34,000  Level Winnipeg Center
Tue 02:09:13 PM 51.3667 -103.2667 296° West 420 483 34,000  Level Winnipeg Center
Tue 02:10:13 PM 51.4000 -103.4333 288° West 420 483 34,000  Level Winnipeg Center
Tue 02:11:13 PM 51.4500 -103.6000 296° West 420 483 34,000  Level Winnipeg Center
Tue 02:12:13 PM 51.5000 -103.8000 292° West 420 483 34,000  Level Winnipeg Center
Tue 02:13:13 PM 51.5500 -103.9667 296° West 420 483 34,000  Level Winnipeg Center
Tue 02:14:13 PM 51.5833 -104.1333 288° West 420 483 34,000  Level Winnipeg Center
Tue 02:15:13 PM 51.6167 -104.3000 288° West 420 483 34,000  Level Winnipeg Center
Tue 02:16:13 PM 51.6667 -104.4833 294° West 430 495 34,000 -1,050 Level Winnipeg Center
Tue 02:17:13 PM 51.7167 -104.6833 292° West 430 495 31,900 -2,500 Descending Winnipeg Center
Tue 02:18:13 PM 51.7500 -104.8667 286° West 450 518 29,000 -3,050 Descending Winnipeg Center
Tue 02:19:13 PM 51.8167 -105.0500 301° West 440 506 25,800 -3,050 Descending Winnipeg Center
Tue 02:20:13 PM 51.8500 -105.2500 285° West 420 483 22,900 -3,000 Descending Winnipeg Center
Tue 02:21:13 PM 51.8833 -105.4167 288° West 400 460 19,800 -2,950 Descending Winnipeg Center
Tue 02:22:13 PM 51.9333 -105.5500 301° West 390 449 17,000 -2,850 Descending Winnipeg Center
Tue 02:23:13 PM 51.9667 -105.7000 290° West 370 426 14,100 -2,550 Descending Winnipeg Center
Tue 02:24:13 PM 51.9833 -105.8667 279° West 350 403 11,900 -1,750 Descending Winnipeg Center
Tue 02:25:13 PM 52.0333 -105.9833 305° West 310 357 10,600 -1,600 Descending Winnipeg Center
Tue 02:26:13 PM 52.0500 -106.1000 283° West 280 322 8,700 -1,850 Descending Winnipeg Center
Tue 02:27:13 PM 52.0833 -106.2167 295° West 260 299 6,900 -1,850 Descending Winnipeg Center
Tue 02:28:13 PM 52.1000 -106.3333 283° West 260 299 5,000 -1,450 Descending Winnipeg Center
Tue 02:29:13 PM 52.1167 -106.4500 283° West 240 276 4,000 -750 Descending Winnipeg Center
Tue 02:30:13 PM 52.1333 -106.5000 299° West 200 230 3,500 -500 Descending Winnipeg Center

Login

Don't have an account? Register now (free) for customized features, flight alerts, and more!